sensor_id;sensor_type;location;lat;lon;timestamp;P1;durP1;ratioP1;P2;durP2;ratioP2
20984;SDS011;10651;47.552;7.606;2022-11-03T06:23:13;22.38;;;12.70;;
20984;SDS011;10651;47.552;7.606;2022-11-03T06:25:41;25.23;;;14.35;;
20984;SDS011;10651;47.552;7.606;2022-11-03T06:28:09;24.55;;;13.25;;
20984;SDS011;10651;47.552;7.606;2022-11-03T06:30:39;21.65;;;13.50;;
20984;SDS011;10651;47.552;7.606;2022-11-03T06:33:21;26.40;;;14.45;;
20984;SDS011;10651;47.552;7.606;2022-11-03T06:36:02;19.42;;;13.55;;
20984;SDS011;10651;47.552;7.606;2022-11-03T06:38:40;86.10;;;41.45;;
20984;SDS011;10651;47.552;7.606;2022-11-03T06:41:08;27.02;;;17.35;;
20984;SDS011;10651;47.552;7.606;2022-11-03T06:43:44;26.42;;;14.50;;
20984;SDS011;10651;47.552;7.606;2022-11-03T06:46:14;19.60;;;13.57;;
20984;SDS011;10651;47.552;7.606;2022-11-03T06:48:48;22.40;;;14.05;;
20984;SDS011;10651;47.552;7.606;2022-11-03T06:51:21;21.42;;;13.60;;
20984;SDS011;10651;47.552;7.606;2022-11-03T06:53:50;24.90;;;14.00;;
20984;SDS011;10651;47.552;7.606;2022-11-03T06:56:18;22.98;;;13.65;;
20984;SDS011;10651;47.552;7.606;2022-11-03T06:58:54;25.52;;;14.23;;
20984;SDS011;10651;47.552;7.606;2022-11-03T07:01:21;19.15;;;13.70;;
20984;SDS011;10651;47.552;7.606;2022-11-03T07:03:58;18.48;;;13.52;;
20984;SDS011;10651;47.552;7.606;2022-11-03T07:06:46;24.48;;;14.13;;
20984;SDS011;10651;47.552;7.606;2022-11-03T07:09:24;23.73;;;13.85;;
20984;SDS011;10651;47.552;7.606;2022-11-03T07:11:53;22.00;;;13.50;;
20984;SDS011;10651;47.552;7.606;2022-11-03T07:14:22;22.38;;;14.63;;
20984;SDS011;10651;47.552;7.606;2022-11-03T07:16:52;26.05;;;15.13;;
20984;SDS011;10651;47.552;7.606;2022-11-03T07:19:27;23.02;;;14.63;;
20984;SDS011;10651;47.552;7.606;2022-11-03T07:21:58;30.02;;;14.88;;
20984;SDS011;10651;47.552;7.606;2022-11-03T07:24:35;21.13;;;13.77;;
20984;SDS011;10651;47.552;7.606;2022-11-03T07:27:12;21.17;;;15.27;;
20984;SDS011;10651;47.552;7.606;2022-11-03T07:29:46;27.27;;;15.23;;
20984;SDS011;10651;47.552;7.606;2022-11-03T07:32:23;22.60;;;13.88;;
20984;SDS011;10651;47.552;7.606;2022-11-03T07:35:14;22.70;;;14.93;;
20984;SDS011;10651;47.552;7.606;2022-11-03T07:37:46;29.40;;;16.17;;
20984;SDS011;10651;47.552;7.606;2022-11-03T07:40:15;26.65;;;14.70;;
20984;SDS011;10651;47.552;7.606;2022-11-03T07:42:51;27.90;;;16.10;;
20984;SDS011;10651;47.552;7.606;2022-11-03T07:50:59;24.77;;;14.90;;
20984;SDS011;10651;47.552;7.606;2022-11-03T07:53:39;30.95;;;15.05;;
20984;SDS011;10651;47.552;7.606;2022-11-03T07:56:18;23.15;;;14.98;;
20984;SDS011;10651;47.552;7.606;2022-11-03T07:58:46;26.48;;;14.20;;
20984;SDS011;10651;47.552;7.606;2022-11-03T08:01:39;24.88;;;14.00;;
20984;SDS011;10651;47.552;7.606;2022-11-03T08:04:27;23.92;;;13.90;;
20984;SDS011;10651;47.552;7.606;2022-11-03T08:06:58;23.40;;;12.93;;
20984;SDS011;10651;47.552;7.606;2022-11-03T08:09:24;20.42;;;13.18;;
20984;SDS011;10651;47.552;7.606;2022-11-03T08:11:50;31.17;;;14.15;;
20984;SDS011;10651;47.552;7.606;2022-11-03T08:14:16;16.70;;;12.57;;
20984;SDS011;10651;47.552;7.606;2022-11-03T08:16:42;23.92;;;12.80;;
20984;SDS011;10651;47.552;7.606;2022-11-03T08:19:10;15.65;;;11.95;;
20984;SDS011;10651;47.552;7.606;2022-11-03T08:21:35;18.27;;;12.10;;
20984;SDS011;10651;47.552;7.606;2022-11-03T08:24:01;23.23;;;10.77;;
20984;SDS011;10651;47.552;7.606;2022-11-03T08:26:27;15.25;;;11.70;;
20984;SDS011;10651;47.552;7.606;2022-11-03T08:28:53;20.33;;;11.73;;
20984;SDS011;10651;47.552;7.606;2022-11-03T08:31:18;25.35;;;12.18;;
20984;SDS011;10651;47.552;7.606;2022-11-03T08:33:44;18.75;;;11.48;;
20984;SDS011;10651;47.552;7.606;2022-11-03T08:36:10;20.95;;;11.07;;
20984;SDS011;10651;47.552;7.606;2022-11-03T08:38:36;22.70;;;11.60;;
20984;SDS011;10651;47.552;7.606;2022-11-03T08:41:01;18.63;;;11.68;;
20984;SDS011;10651;47.552;7.606;2022-11-03T08:43:28;25.02;;;13.07;;
20984;SDS011;10651;47.552;7.606;2022-11-03T08:45:53;19.15;;;11.55;;
20984;SDS011;10651;47.552;7.606;2022-11-03T08:48:23;16.77;;;11.43;;
20984;SDS011;10651;47.552;7.606;2022-11-03T08:50:51;19.20;;;10.52;;
20984;SDS011;10651;47.552;7.606;2022-11-03T08:53:21;18.98;;;11.35;;
20984;SDS011;10651;47.552;7.606;2022-11-03T08:55:48;16.85;;;11.93;;
20984;SDS011;10651;47.552;7.606;2022-11-03T08:58:14;16.63;;;11.07;;
20984;SDS011;10651;47.552;7.606;2022-11-03T09:00:40;15.60;;;10.82;;
20984;SDS011;10651;47.552;7.606;2022-11-03T09:03:05;18.27;;;10.73;;
20984;SDS011;10651;47.552;7.606;2022-11-03T09:05:31;16.95;;;9.50;;
20984;SDS011;10651;47.552;7.606;2022-11-03T09:07:57;18.35;;;9.50;;
20984;SDS011;10651;47.552;7.606;2022-11-03T09:10:23;16.13;;;9.80;;
20984;SDS011;10651;47.552;7.606;2022-11-03T09:12:52;16.50;;;8.38;;
20984;SDS011;10651;47.552;7.606;2022-11-03T09:15:18;18.20;;;9.05;;
20984;SDS011;10651;47.552;7.606;2022-11-03T09:17:44;14.35;;;9.57;;
20984;SDS011;10651;47.552;7.606;2022-11-03T09:20:10;12.55;;;8.85;;
20984;SDS011;10651;47.552;7.606;2022-11-03T09:22:36;14.95;;;9.27;;
20984;SDS011;10651;47.552;7.606;2022-11-03T09:25:02;13.88;;;8.55;;
20984;SDS011;10651;47.552;7.606;2022-11-03T09:27:29;17.10;;;9.27;;
20984;SDS011;10651;47.552;7.606;2022-11-03T09:29:55;12.85;;;9.25;;
20984;SDS011;10651;47.552;7.606;2022-11-03T09:32:21;16.83;;;9.43;;
20984;SDS011;10651;47.552;7.606;2022-11-03T09:34:47;15.35;;;9.35;;
20984;SDS011;10651;47.552;7.606;2022-11-03T09:37:13;13.55;;;9.35;;
20984;SDS011;10651;47.552;7.606;2022-11-03T09:39:40;15.65;;;9.38;;
20984;SDS011;10651;47.552;7.606;2022-11-03T09:42:06;14.65;;;9.70;;
20984;SDS011;10651;47.552;7.606;2022-11-03T09:44:33;13.75;;;8.50;;
20984;SDS011;10651;47.552;7.606;2022-11-03T09:47:00;16.67;;;8.63;;
20984;SDS011;10651;47.552;7.606;2022-11-03T09:49:27;14.38;;;9.30;;
20984;SDS011;10651;47.552;7.606;2022-11-03T09:51:56;16.08;;;8.70;;
20984;SDS011;10651;47.552;7.606;2022-11-03T09:54:22;14.98;;;8.98;;
20984;SDS011;10651;47.552;7.606;2022-11-03T09:56:48;14.20;;;9.02;;
20984;SDS011;10651;47.552;7.606;2022-11-03T09:59:18;16.73;;;8.55;;
20984;SDS011;10651;47.552;7.606;2022-11-03T10:01:45;12.20;;;7.95;;
20984;SDS011;10651;47.552;7.606;2022-11-03T10:04:14;12.25;;;7.55;;
20984;SDS011;10651;47.552;7.606;2022-11-03T10:06:41;12.05;;;7.88;;
20984;SDS011;10651;47.552;7.606;2022-11-03T10:09:14;15.75;;;7.85;;
20984;SDS011;10651;47.552;7.606;2022-11-03T10:11:42;13.15;;;8.07;;
20984;SDS011;10651;47.552;7.606;2022-11-03T10:14:09;11.98;;;7.78;;
20984;SDS011;10651;47.552;7.606;2022-11-03T10:16:38;17.52;;;8.38;;
20984;SDS011;10651;47.552;7.606;2022-11-03T10:19:12;14.38;;;7.70;;
20984;SDS011;10651;47.552;7.606;2022-11-03T10:21:38;16.67;;;8.20;;
20984;SDS011;10651;47.552;7.606;2022-11-03T10:24:09;13.02;;;8.48;;
20984;SDS011;10651;47.552;7.606;2022-11-03T10:29:17;18.48;;;8.35;;
20984;SDS011;10651;47.552;7.606;2022-11-03T10:31:54;14.38;;;8.38;;
20984;SDS011;10651;47.552;7.606;2022-11-03T10:37:41;15.77;;;9.10;;
20984;SDS011;10651;47.552;7.606;2022-11-03T10:39:49;12.50;;;8.85;;
20984;SDS011;10651;47.552;7.606;2022-11-03T10:42:20;17.17;;;8.52;;
20984;SDS011;10651;47.552;7.606;2022-11-03T10:44:47;11.70;;;8.05;;
20984;SDS011;10651;47.552;7.606;2022-11-03T10:47:30;14.48;;;8.85;;
20984;SDS011;10651;47.552;7.606;2022-11-03T10:49:58;18.77;;;9.32;;
20984;SDS011;10651;47.552;7.606;2022-11-03T10:52:47;15.25;;;9.30;;
20984;SDS011;10651;47.552;7.606;2022-11-03T10:55:14;17.60;;;9.23;;
20984;SDS011;10651;47.552;7.606;2022-11-03T10:57:40;16.98;;;9.70;;
20984;SDS011;10651;47.552;7.606;2022-11-03T11:00:06;13.18;;;9.00;;
20984;SDS011;10651;47.552;7.606;2022-11-03T11:02:37;12.38;;;9.00;;
20984;SDS011;10651;47.552;7.606;2022-11-03T11:08:08;11.40;;;8.07;;
20984;SDS011;10651;47.552;7.606;2022-11-03T11:10:34;14.57;;;8.75;;
20984;SDS011;10651;47.552;7.606;2022-11-03T11:20:51;14.80;;;8.73;;
20984;SDS011;10651;47.552;7.606;2022-11-03T11:26:14;14.48;;;7.90;;
20984;SDS011;10651;47.552;7.606;2022-11-03T11:31:33;12.00;;;8.45;;
20984;SDS011;10651;47.552;7.606;2022-11-03T11:36:39;11.90;;;7.32;;
20984;SDS011;10651;47.552;7.606;2022-11-03T11:49:48;15.88;;;7.53;;
20984;SDS011;10651;47.552;7.606;2022-11-03T11:52:24;10.23;;;7.25;;
20984;SDS011;10651;47.552;7.606;2022-11-03T11:54:50;10.18;;;6.82;;
20984;SDS011;10651;47.552;7.606;2022-11-03T11:57:17;11.52;;;7.43;;
20984;SDS011;10651;47.552;7.606;2022-11-03T11:59:45;16.75;;;9.52;;
20984;SDS011;10651;47.552;7.606;2022-11-03T12:02:17;11.98;;;7.35;;
20984;SDS011;10651;47.552;7.606;2022-11-03T12:04:47;9.32;;;7.15;;
20984;SDS011;10651;47.552;7.606;2022-11-03T12:07:34;12.40;;;7.65;;
20984;SDS011;10651;47.552;7.606;2022-11-03T12:10:33;11.90;;;7.82;;
20984;SDS011;10651;47.552;7.606;2022-11-03T12:12:54;17.88;;;7.78;;
20984;SDS011;10651;47.552;7.606;2022-11-03T12:20:54;14.95;;;8.27;;
20984;SDS011;10651;47.552;7.606;2022-11-03T12:28:52;10.88;;;8.07;;
20984;SDS011;10651;47.552;7.606;2022-11-03T12:31:18;15.20;;;8.65;;
20984;SDS011;10651;47.552;7.606;2022-11-03T12:33:46;11.68;;;7.82;;
20984;SDS011;10651;47.552;7.606;2022-11-03T12:36:11;14.88;;;8.55;;
20984;SDS011;10651;47.552;7.606;2022-11-03T12:38:37;14.02;;;7.80;;
20984;SDS011;10651;47.552;7.606;2022-11-03T12:41:03;15.82;;;8.00;;
20984;SDS011;10651;47.552;7.606;2022-11-03T12:43:49;17.98;;;8.55;;
20984;SDS011;10651;47.552;7.606;2022-11-03T12:46:16;16.38;;;8.13;;
20984;SDS011;10651;47.552;7.606;2022-11-03T12:48:43;16.42;;;8.73;;
20984;SDS011;10651;47.552;7.606;2022-11-03T12:51:11;17.30;;;8.30;;
20984;SDS011;10651;47.552;7.606;2022-11-03T12:53:38;12.85;;;7.65;;
20984;SDS011;10651;47.552;7.606;2022-11-03T12:56:05;12.35;;;7.28;;
20984;SDS011;10651;47.552;7.606;2022-11-03T12:58:32;12.80;;;7.15;;
20984;SDS011;10651;47.552;7.606;2022-11-03T13:00:57;10.50;;;7.07;;
20984;SDS011;10651;47.552;7.606;2022-11-03T13:03:23;9.20;;;6.85;;
20984;SDS011;10651;47.552;7.606;2022-11-03T13:05:49;13.90;;;7.47;;
20984;SDS011;10651;47.552;7.606;2022-11-03T13:08:15;12.68;;;5.75;;
20984;SDS011;10651;47.552;7.606;2022-11-03T13:10:41;11.63;;;6.22;;
20984;SDS011;10651;47.552;7.606;2022-11-03T13:13:06;13.68;;;6.95;;
20984;SDS011;10651;47.552;7.606;2022-11-03T13:15:32;16.38;;;5.88;;
20984;SDS011;10651;47.552;7.606;2022-11-03T13:17:58;8.27;;;6.18;;
20984;SDS011;10651;47.552;7.606;2022-11-03T13:20:23;17.02;;;7.05;;
20984;SDS011;10651;47.552;7.606;2022-11-03T13:22:49;12.57;;;6.45;;
20984;SDS011;10651;47.552;7.606;2022-11-03T13:25:15;10.88;;;6.20;;
20984;SDS011;10651;47.552;7.606;2022-11-03T13:27:42;10.90;;;6.20;;
20984;SDS011;10651;47.552;7.606;2022-11-03T13:30:08;9.57;;;5.60;;
20984;SDS011;10651;47.552;7.606;2022-11-03T13:32:36;12.00;;;5.47;;
20984;SDS011;10651;47.552;7.606;2022-11-03T13:35:02;8.70;;;5.15;;
20984;SDS011;10651;47.552;7.606;2022-11-03T13:37:28;8.50;;;4.68;;
20984;SDS011;10651;47.552;7.606;2022-11-03T13:39:53;10.38;;;4.53;;
20984;SDS011;10651;47.552;7.606;2022-11-03T13:42:19;9.88;;;4.38;;
20984;SDS011;10651;47.552;7.606;2022-11-03T13:44:45;7.05;;;5.20;;
20984;SDS011;10651;47.552;7.606;2022-11-03T13:47:10;9.20;;;5.32;;
20984;SDS011;10651;47.552;7.606;2022-11-03T13:49:36;12.80;;;5.35;;
20984;SDS011;10651;47.552;7.606;2022-11-03T13:52:02;9.32;;;5.03;;
20984;SDS011;10651;47.552;7.606;2022-11-03T13:54:28;12.13;;;5.63;;
20984;SDS011;10651;47.552;7.606;2022-11-03T13:56:54;11.50;;;6.20;;
20984;SDS011;10651;47.552;7.606;2022-11-03T13:59:20;13.88;;;5.85;;
20984;SDS011;10651;47.552;7.606;2022-11-03T14:01:45;10.82;;;6.13;;
20984;SDS011;10651;47.552;7.606;2022-11-03T14:04:11;9.35;;;6.22;;
20984;SDS011;10651;47.552;7.606;2022-11-03T14:06:37;12.32;;;7.30;;
20984;SDS011;10651;47.552;7.606;2022-11-03T14:09:02;17.17;;;7.40;;
20984;SDS011;10651;47.552;7.606;2022-11-03T14:11:28;12.50;;;7.70;;
20984;SDS011;10651;47.552;7.606;2022-11-03T14:14:12;10.73;;;7.28;;
20984;SDS011;10651;47.552;7.606;2022-11-03T14:16:38;12.55;;;7.72;;
20984;SDS011;10651;47.552;7.606;2022-11-03T14:19:03;15.48;;;7.95;;
20984;SDS011;10651;47.552;7.606;2022-11-03T14:21:30;10.93;;;7.90;;
20984;SDS011;10651;47.552;7.606;2022-11-03T14:23:55;13.80;;;7.78;;
20984;SDS011;10651;47.552;7.606;2022-11-03T14:26:21;11.90;;;7.80;;
20984;SDS011;10651;47.552;7.606;2022-11-03T14:28:48;21.27;;;11.68;;
20984;SDS011;10651;47.552;7.606;2022-11-03T14:31:13;14.93;;;9.70;;
20984;SDS011;10651;47.552;7.606;2022-11-03T14:33:39;12.73;;;7.88;;
20984;SDS011;10651;47.552;7.606;2022-11-03T14:36:05;11.23;;;7.80;;
20984;SDS011;10651;47.552;7.606;2022-11-03T14:38:30;15.77;;;8.43;;
20984;SDS011;10651;47.552;7.606;2022-11-03T14:40:56;13.05;;;7.82;;
20984;SDS011;10651;47.552;7.606;2022-11-03T14:43:40;15.32;;;8.40;;
20984;SDS011;10651;47.552;7.606;2022-11-03T14:46:06;20.52;;;7.65;;
20984;SDS011;10651;47.552;7.606;2022-11-03T14:48:31;12.85;;;7.63;;
20984;SDS011;10651;47.552;7.606;2022-11-03T14:50:57;13.40;;;8.75;;
20984;SDS011;10651;47.552;7.606;2022-11-03T14:53:23;13.27;;;7.93;;
20984;SDS011;10651;47.552;7.606;2022-11-03T14:55:48;15.68;;;8.40;;
20984;SDS011;10651;47.552;7.606;2022-11-03T14:58:14;17.35;;;8.82;;
20984;SDS011;10651;47.552;7.606;2022-11-03T15:00:40;14.90;;;8.50;;
20984;SDS011;10651;47.552;7.606;2022-11-03T15:03:06;19.00;;;9.35;;
20984;SDS011;10651;47.552;7.606;2022-11-03T15:05:31;19.63;;;10.45;;
20984;SDS011;10651;47.552;7.606;2022-11-03T15:08:13;12.55;;;8.88;;
20984;SDS011;10651;47.552;7.606;2022-11-03T15:10:40;15.50;;;9.43;;
20984;SDS011;10651;47.552;7.606;2022-11-03T15:13:06;19.50;;;9.57;;
20984;SDS011;10651;47.552;7.606;2022-11-03T15:15:32;14.05;;;9.55;;
20984;SDS011;10651;47.552;7.606;2022-11-03T15:18:00;15.15;;;9.77;;
20984;SDS011;10651;47.552;7.606;2022-11-03T15:20:26;18.58;;;9.68;;
20984;SDS011;10651;47.552;7.606;2022-11-03T15:22:52;15.57;;;9.45;;
20984;SDS011;10651;47.552;7.606;2022-11-03T15:25:18;12.93;;;9.05;;
20984;SDS011;10651;47.552;7.606;2022-11-03T15:27:43;14.50;;;9.25;;
20984;SDS011;10651;47.552;7.606;2022-11-03T15:30:09;16.83;;;8.52;;
20984;SDS011;10651;47.552;7.606;2022-11-03T15:32:35;9.45;;;7.05;;
20984;SDS011;10651;47.552;7.606;2022-11-03T15:35:01;13.77;;;8.02;;
20984;SDS011;10651;47.552;7.606;2022-11-03T15:37:27;16.50;;;8.10;;
20984;SDS011;10651;47.552;7.606;2022-11-03T15:39:53;16.92;;;8.77;;
20984;SDS011;10651;47.552;7.606;2022-11-03T15:42:18;14.05;;;8.52;;
20984;SDS011;10651;47.552;7.606;2022-11-03T15:44:44;20.25;;;7.78;;
20984;SDS011;10651;47.552;7.606;2022-11-03T15:47:10;10.90;;;8.57;;
20984;SDS011;10651;47.552;7.606;2022-11-03T15:49:35;14.90;;;8.98;;
20984;SDS011;10651;47.552;7.606;2022-11-03T15:52:01;16.73;;;9.57;;
20984;SDS011;10651;47.552;7.606;2022-11-03T15:54:27;15.60;;;9.93;;
20984;SDS011;10651;47.552;7.606;2022-11-03T15:56:52;18.15;;;9.80;;
20984;SDS011;10651;47.552;7.606;2022-11-03T15:59:18;15.40;;;9.60;;
20984;SDS011;10651;47.552;7.606;2022-11-03T16:01:43;15.80;;;8.95;;
20984;SDS011;10651;47.552;7.606;2022-11-03T16:04:09;13.43;;;8.95;;
20984;SDS011;10651;47.552;7.606;2022-11-03T16:06:35;20.25;;;10.18;;
20984;SDS011;10651;47.552;7.606;2022-11-03T16:09:00;14.73;;;9.70;;
20984;SDS011;10651;47.552;7.606;2022-11-03T16:11:26;18.17;;;10.18;;
20984;SDS011;10651;47.552;7.606;2022-11-03T16:13:52;14.82;;;10.15;;
20984;SDS011;10651;47.552;7.606;2022-11-03T16:16:17;13.63;;;9.52;;
20984;SDS011;10651;47.552;7.606;2022-11-03T16:18:43;16.02;;;9.32;;
20984;SDS011;10651;47.552;7.606;2022-11-03T16:21:09;13.85;;;9.93;;
20984;SDS011;10651;47.552;7.606;2022-11-03T16:23:35;14.30;;;9.82;;
20984;SDS011;10651;47.552;7.606;2022-11-03T16:26:01;17.33;;;9.40;;
20984;SDS011;10651;47.552;7.606;2022-11-03T16:28:29;13.70;;;8.68;;
20984;SDS011;10651;47.552;7.606;2022-11-03T16:30:54;14.05;;;9.55;;
20984;SDS011;10651;47.552;7.606;2022-11-03T16:33:20;67.90;;;31.25;;
20984;SDS011;10651;47.552;7.606;2022-11-03T16:35:46;169.15;;;71.75;;
20984;SDS011;10651;47.552;7.606;2022-11-03T16:38:12;24.05;;;13.52;;
20984;SDS011;10651;47.552;7.606;2022-11-03T16:40:39;17.10;;;10.18;;
20984;SDS011;10651;47.552;7.606;2022-11-03T16:43:05;14.15;;;8.23;;
20984;SDS011;10651;47.552;7.606;2022-11-03T16:45:31;18.83;;;9.13;;
20984;SDS011;10651;47.552;7.606;2022-11-03T16:47:57;15.40;;;8.60;;
20984;SDS011;10651;47.552;7.606;2022-11-03T16:50:23;15.52;;;9.82;;
20984;SDS011;10651;47.552;7.606;2022-11-03T16:52:48;15.68;;;9.32;;
20984;SDS011;10651;47.552;7.606;2022-11-03T16:55:15;16.35;;;9.80;;
20984;SDS011;10651;47.552;7.606;2022-11-03T16:57:42;21.83;;;10.20;;
20984;SDS011;10651;47.552;7.606;2022-11-03T17:00:10;16.00;;;10.98;;
20984;SDS011;10651;47.552;7.606;2022-11-03T17:02:38;19.33;;;10.52;;
20984;SDS011;10651;47.552;7.606;2022-11-03T17:05:04;17.58;;;10.57;;
20984;SDS011;10651;47.552;7.606;2022-11-03T17:07:30;17.17;;;10.50;;
20984;SDS011;10651;47.552;7.606;2022-11-03T17:09:56;14.60;;;10.80;;
20984;SDS011;10651;47.552;7.606;2022-11-03T17:12:21;18.50;;;11.50;;
20984;SDS011;10651;47.552;7.606;2022-11-03T17:14:47;19.35;;;11.02;;
20984;SDS011;10651;47.552;7.606;2022-11-03T17:17:13;14.27;;;10.05;;
20984;SDS011;10651;47.552;7.606;2022-11-03T17:19:39;17.45;;;10.13;;
20984;SDS011;10651;47.552;7.606;2022-11-03T17:22:04;17.23;;;11.32;;
20984;SDS011;10651;47.552;7.606;2022-11-03T17:24:31;15.68;;;10.55;;
20984;SDS011;10651;47.552;7.606;2022-11-03T17:26:58;13.93;;;9.40;;
20984;SDS011;10651;47.552;7.606;2022-11-03T17:29:37;20.85;;;9.98;;
20984;SDS011;10651;47.552;7.606;2022-11-03T17:32:18;15.73;;;9.43;;
20984;SDS011;10651;47.552;7.606;2022-11-03T17:34:52;16.75;;;8.88;;
20984;SDS011;10651;47.552;7.606;2022-11-03T17:37:18;10.05;;;7.78;;
20984;SDS011;10651;47.552;7.606;2022-11-03T17:39:44;11.38;;;8.20;;
20984;SDS011;10651;47.552;7.606;2022-11-03T17:44:39;15.90;;;11.15;;
20984;SDS011;10651;47.552;7.606;2022-11-03T17:47:06;22.83;;;15.27;;
20984;SDS011;10651;47.552;7.606;2022-11-03T17:49:31;28.45;;;14.48;;
20984;SDS011;10651;47.552;7.606;2022-11-03T17:51:57;20.07;;;12.53;;
20984;SDS011;10651;47.552;7.606;2022-11-03T17:54:23;16.70;;;9.43;;
20984;SDS011;10651;47.552;7.606;2022-11-03T17:56:52;14.82;;;8.77;;
20984;SDS011;10651;47.552;7.606;2022-11-03T17:59:17;18.67;;;9.75;;
20984;SDS011;10651;47.552;7.606;2022-11-03T18:01:43;12.15;;;8.98;;
20984;SDS011;10651;47.552;7.606;2022-11-03T18:04:12;16.33;;;9.13;;
20984;SDS011;10651;47.552;7.606;2022-11-03T18:06:39;14.70;;;9.40;;
20984;SDS011;10651;47.552;7.606;2022-11-03T18:09:05;13.10;;;8.93;;
20984;SDS011;10651;47.552;7.606;2022-11-03T18:11:31;21.60;;;9.10;;
20984;SDS011;10651;47.552;7.606;2022-11-03T18:14:16;13.52;;;8.50;;
20984;SDS011;10651;47.552;7.606;2022-11-03T18:16:43;15.40;;;9.18;;
20984;SDS011;10651;47.552;7.606;2022-11-03T18:19:10;20.10;;;9.48;;
20984;SDS011;10651;47.552;7.606;2022-11-03T18:21:38;17.40;;;10.70;;
20984;SDS011;10651;47.552;7.606;2022-11-03T18:26:40;15.43;;;11.68;;
20984;SDS011;10651;47.552;7.606;2022-11-03T18:29:06;17.00;;;11.05;;
20984;SDS011;10651;47.552;7.606;2022-11-03T18:31:40;20.60;;;11.43;;
20984;SDS011;10651;47.552;7.606;2022-11-03T18:34:12;38.05;;;13.18;;
20984;SDS011;10651;47.552;7.606;2022-11-03T18:36:47;26.48;;;13.18;;
20984;SDS011;10651;47.552;7.606;2022-11-03T18:39:15;18.05;;;10.95;;
20984;SDS011;10651;47.552;7.606;2022-11-03T18:41:45;17.25;;;9.40;;
20984;SDS011;10651;47.552;7.606;2022-11-03T18:44:20;18.75;;;11.43;;
20984;SDS011;10651;47.552;7.606;2022-11-03T18:46:52;21.30;;;10.65;;
20984;SDS011;10651;47.552;7.606;2022-11-03T18:49:21;17.35;;;9.55;;
20984;SDS011;10651;47.552;7.606;2022-11-03T18:52:00;17.75;;;10.32;;
20984;SDS011;10651;47.552;7.606;2022-11-03T18:54:34;15.70;;;11.07;;
20984;SDS011;10651;47.552;7.606;2022-11-03T18:57:00;18.35;;;13.00;;
20984;SDS011;10651;47.552;7.606;2022-11-03T18:59:28;32.85;;;18.35;;
20984;SDS011;10651;47.552;7.606;2022-11-03T19:01:56;22.52;;;14.00;;
20984;SDS011;10651;47.552;7.606;2022-11-03T19:04:21;15.80;;;10.52;;
20984;SDS011;10651;47.552;7.606;2022-11-03T19:06:48;14.85;;;10.75;;
20984;SDS011;10651;47.552;7.606;2022-11-03T19:09:19;13.07;;;10.52;;
20984;SDS011;10651;47.552;7.606;2022-11-03T19:11:48;24.92;;;15.23;;
20984;SDS011;10651;47.552;7.606;2022-11-03T19:14:17;24.42;;;13.32;;
20984;SDS011;10651;47.552;7.606;2022-11-03T19:16:50;26.02;;;15.07;;
20984;SDS011;10651;47.552;7.606;2022-11-03T19:19:17;18.80;;;12.13;;
20984;SDS011;10651;47.552;7.606;2022-11-03T19:21:43;19.90;;;12.25;;
20984;SDS011;10651;47.552;7.606;2022-11-03T19:24:09;24.33;;;15.52;;
20984;SDS011;10651;47.552;7.606;2022-11-03T19:26:39;24.15;;;15.75;;
20984;SDS011;10651;47.552;7.606;2022-11-03T19:29:10;22.10;;;14.82;;
20984;SDS011;10651;47.552;7.606;2022-11-03T19:31:42;23.83;;;14.15;;
20984;SDS011;10651;47.552;7.606;2022-11-03T19:34:15;21.13;;;13.50;;
20984;SDS011;10651;47.552;7.606;2022-11-03T19:36:43;23.58;;;11.77;;
20984;SDS011;10651;47.552;7.606;2022-11-03T19:39:55;18.38;;;12.68;;
20984;SDS011;10651;47.552;7.606;2022-11-03T19:42:01;16.42;;;11.45;;
20984;SDS011;10651;47.552;7.606;2022-11-03T19:44:52;15.20;;;10.82;;
20984;SDS011;10651;47.552;7.606;2022-11-03T19:47:22;18.45;;;10.68;;
20984;SDS011;10651;47.552;7.606;2022-11-03T19:49:49;20.35;;;11.88;;
20984;SDS011;10651;47.552;7.606;2022-11-03T19:52:15;17.92;;;10.05;;
20984;SDS011;10651;47.552;7.606;2022-11-03T19:54:43;15.70;;;9.52;;
20984;SDS011;10651;47.552;7.606;2022-11-03T19:57:12;18.85;;;10.45;;
20984;SDS011;10651;47.552;7.606;2022-11-03T19:59:40;16.73;;;8.10;;
20984;SDS011;10651;47.552;7.606;2022-11-03T20:02:07;3.88;;;2.83;;
20984;SDS011;10651;47.552;7.606;2022-11-03T20:04:33;3.60;;;2.22;;
20984;SDS011;10651;47.552;7.606;2022-11-03T20:06:59;4.10;;;1.98;;
20984;SDS011;10651;47.552;7.606;2022-11-03T20:09:26;2.97;;;1.75;;
20984;SDS011;10651;47.552;7.606;2022-11-03T20:11:54;1.95;;;1.85;;
20984;SDS011;10651;47.552;7.606;2022-11-03T20:14:24;3.58;;;1.90;;
20984;SDS011;10651;47.552;7.606;2022-11-03T20:16:52;2.45;;;2.05;;
20984;SDS011;10651;47.552;7.606;2022-11-03T20:19:20;3.83;;;2.08;;
20984;SDS011;10651;47.552;7.606;2022-11-03T20:21:46;3.33;;;2.50;;
20984;SDS011;10651;47.552;7.606;2022-11-03T20:24:15;2.72;;;2.40;;
20984;SDS011;10651;47.552;7.606;2022-11-03T20:26:43;3.88;;;2.10;;
20984;SDS011;10651;47.552;7.606;2022-11-03T20:29:09;3.20;;;1.75;;
20984;SDS011;10651;47.552;7.606;2022-11-03T20:31:37;4.70;;;2.13;;
20984;SDS011;10651;47.552;7.606;2022-11-03T20:34:03;7.40;;;2.28;;
20984;SDS011;10651;47.552;7.606;2022-11-03T20:36:29;2.40;;;1.63;;
20984;SDS011;10651;47.552;7.606;2022-11-03T20:38:57;4.47;;;2.20;;
20984;SDS011;10651;47.552;7.606;2022-11-03T20:41:24;2.28;;;1.98;;
20984;SDS011;10651;47.552;7.606;2022-11-03T20:43:52;3.30;;;2.22;;
20984;SDS011;10651;47.552;7.606;2022-11-03T20:46:29;4.57;;;2.13;;
20984;SDS011;10651;47.552;7.606;2022-11-03T20:48:57;4.22;;;2.10;;
20984;SDS011;10651;47.552;7.606;2022-11-03T20:51:29;2.40;;;1.77;;
20984;SDS011;10651;47.552;7.606;2022-11-03T20:53:56;4.13;;;2.28;;
20984;SDS011;10651;47.552;7.606;2022-11-03T20:56:24;2.75;;;1.80;;
20984;SDS011;10651;47.552;7.606;2022-11-03T20:58:51;2.97;;;2.03;;
20984;SDS011;10651;47.552;7.606;2022-11-03T21:01:38;3.55;;;2.30;;
20984;SDS011;10651;47.552;7.606;2022-11-03T21:04:03;2.25;;;2.05;;
20984;SDS011;10651;47.552;7.606;2022-11-03T21:06:33;4.47;;;2.03;;
20984;SDS011;10651;47.552;7.606;2022-11-03T21:09:00;2.53;;;1.75;;
20984;SDS011;10651;47.552;7.606;2022-11-03T21:11:26;1.58;;;1.48;;
20984;SDS011;10651;47.552;7.606;2022-11-03T21:14:00;5.85;;;1.60;;
20984;SDS011;10651;47.552;7.606;2022-11-03T21:16:29;2.60;;;1.60;;
20984;SDS011;10651;47.552;7.606;2022-11-03T21:19:17;1.48;;;1.38;;
20984;SDS011;10651;47.552;7.606;2022-11-03T21:22:22;2.03;;;1.60;;
20984;SDS011;10651;47.552;7.606;2022-11-03T21:24:53;1.88;;;1.48;;
20984;SDS011;10651;47.552;7.606;2022-11-03T21:27:18;1.88;;;1.63;;
20984;SDS011;10651;47.552;7.606;2022-11-03T21:29:44;1.50;;;1.40;;
20984;SDS011;10651;47.552;7.606;2022-11-03T21:32:11;1.60;;;1.50;;
20984;SDS011;10651;47.552;7.606;2022-11-03T21:34:38;1.50;;;1.40;;
20984;SDS011;10651;47.552;7.606;2022-11-03T21:37:04;1.90;;;1.30;;
20984;SDS011;10651;47.552;7.606;2022-11-03T21:39:30;2.45;;;1.00;;
20984;SDS011;10651;47.552;7.606;2022-11-03T21:41:56;1.65;;;1.30;;
20984;SDS011;10651;47.552;7.606;2022-11-03T21:44:40;1.55;;;1.38;;
20984;SDS011;10651;47.552;7.606;2022-11-03T21:47:06;1.33;;;1.15;;
20984;SDS011;10651;47.552;7.606;2022-11-03T21:49:32;1.90;;;1.20;;
20984;SDS011;10651;47.552;7.606;2022-11-03T21:52:07;4.18;;;1.40;;
20984;SDS011;10651;47.552;7.606;2022-11-03T21:54:35;1.85;;;1.20;;
20984;SDS011;10651;47.552;7.606;2022-11-03T21:57:05;1.10;;;1.10;;
20984;SDS011;10651;47.552;7.606;2022-11-03T21:59:32;1.73;;;1.50;;
20984;SDS011;10651;47.552;7.606;2022-11-03T22:01:58;4.50;;;1.85;;